Time;durP1;ratioP1;P1;durP2;ratioP2;P2;SDS_P1;SDS_P2;PMS_P1;PMS_P2;Temp;Humidity;BMP_temperature;BMP_pressure;BME280_temperature;BME280_humidity;BME280_pressure;Samples;Min_cycle;Max_cycle;Signal;HPM_P1;HPM_P2
2023/09/23 00:02:22;;;;;;;1.65;0.20;;;12.00;99.90;;;;;;5094706;28;20073;-74
2023/09/23 00:04:47;;;;;;;0.88;0.08;;;12.00;99.90;;;;;;5093240;28;20107;-74
2023/09/23 00:07:13;;;;;;;1.35;0.43;;;12.00;99.90;;;;;;5093211;28;20116;-74
2023/09/23 00:09:39;;;;;;;1.83;0.73;;;12.00;99.90;;;;;;5094655;28;20059;-74
2023/09/23 00:12:06;;;;;;;1.15;0.40;;;12.10;99.90;;;;;;5094419;28;20020;-74
2023/09/23 00:14:31;;;;;;;0.73;0.20;;;12.00;99.90;;;;;;5094492;28;20429;-74
2023/09/23 00:16:58;;;;;;;3.00;0.63;;;12.00;99.90;;;;;;5093195;28;20024;-74
2023/09/23 00:19:24;;;;;;;1.45;0.60;;;12.00;99.90;;;;;;5093243;28;20032;-74
2023/09/23 00:21:51;;;;;;;2.35;0.60;;;12.00;99.90;;;;;;5094382;28;20365;-74
2023/09/23 00:24:16;;;;;;;2.90;0.75;;;12.00;99.90;;;;;;5094191;28;20032;-74
2023/09/23 00:26:43;;;;;;;5.28;0.45;;;12.10;99.90;;;;;;5094053;28;20028;-74
2023/09/23 00:29:10;;;;;;;3.60;1.15;;;12.10;99.90;;;;;;5094625;28;20076;-74
2023/09/23 00:31:36;;;;;;;3.72;0.50;;;12.10;99.90;;;;;;5094230;28;20012;-74
2023/09/23 00:34:02;;;;;;;1.67;0.75;;;12.00;99.90;;;;;;5094019;28;20024;-74
2023/09/23 00:36:28;;;;;;;1.17;0.55;;;12.00;99.90;;;;;;5095103;28;20032;-74
2023/09/23 00:38:55;;;;;;;0.82;0.55;;;11.90;99.90;;;;;;5094162;28;20028;-74
2023/09/23 00:41:21;;;;;;;0.60;0.40;;;11.90;99.90;;;;;;5094135;28;20020;-74
2023/09/23 00:43:48;;;;;;;1.00;0.22;;;11.90;99.90;;;;;;5094268;28;20031;-74
2023/09/23 00:46:21;;;;;;;2.03;0.47;;;11.90;99.90;;;;;;5092647;28;20020;-74
2023/09/23 00:48:48;;;;;;;1.60;0.22;;;11.80;99.90;;;;;;5092771;28;20022;-74
2023/09/23 00:51:14;;;;;;;0.80;0.50;;;11.90;99.90;;;;;;5092933;28;20047;-74
2023/09/23 00:53:40;;;;;;;0.88;0.20;;;11.90;99.90;;;;;;5093957;28;20028;-74
2023/09/23 00:56:08;;;;;;;0.40;0.25;;;11.80;99.90;;;;;;5092426;28;20100;-74
2023/09/23 00:58:36;;;;;;;0.95;0.30;;;11.80;99.90;;;;;;5093788;28;20076;-74
2023/09/23 01:01:05;;;;;;;0.88;0.10;;;11.90;99.90;;;;;;5092391;28;20032;-74
2023/09/23 01:03:31;;;;;;;2.38;0.20;;;11.80;99.90;;;;;;5093669;28;20024;-74
2023/09/23 01:06:19;;;;;;;0.40;0.13;;;11.80;99.90;;;;;;5093514;28;20028;-74
2023/09/23 01:08:46;;;;;;;2.50;0.20;;;11.80;99.90;;;;;;5093090;28;20016;-74
2023/09/23 01:11:17;;;;;;;2.35;0.30;;;11.80;99.90;;;;;;5092341;28;20024;-74
2023/09/23 01:13:44;;;;;;;1.20;0.20;;;11.80;99.90;;;;;;5094103;28;20374;-74
2023/09/23 01:16:14;;;;;;;1.13;0.25;;;11.70;99.90;;;;;;5093476;28;20059;-74
2023/09/23 01:18:45;;;;;;;1.83;0.63;;;11.70;99.90;;;;;;5093621;28;20048;-74
2023/09/23 01:21:10;;;;;;;0.70;0.32;;;11.70;99.90;;;;;;5092271;28;20027;-74
2023/09/23 01:23:37;;;;;;;1.42;0.63;;;11.70;99.90;;;;;;5093495;28;20032;-74
2023/09/23 01:26:04;;;;;;;2.85;1.40;;;11.70;99.90;;;;;;5093245;28;20387;-74
2023/09/23 01:28:32;;;;;;;3.50;1.67;;;12.10;99.90;;;;;;5093361;28;20532;-74
2023/09/23 01:30:59;;;;;;;4.90;2.50;;;11.70;99.90;;;;;;5093349;28;20016;-74
2023/09/23 01:33:26;;;;;;;7.53;3.60;;;11.80;99.90;;;;;;5092079;28;20074;-74
2023/09/23 01:35:55;;;;;;;8.25;4.25;;;11.80;99.90;;;;;;5093210;28;20115;-75
2023/09/23 01:38:21;;;;;;;10.07;4.43;;;11.80;99.90;;;;;;5093281;28;20028;-74
2023/09/23 01:40:47;;;;;;;8.50;4.30;;;11.80;99.90;;;;;;5093263;28;20360;-74
2023/09/23 01:43:12;;;;;;;8.52;4.70;;;11.80;99.90;;;;;;5093212;28;20024;-74
2023/09/23 01:45:38;;;;;;;10.00;4.55;;;11.70;99.90;;;;;;5093297;28;20028;-74
2023/09/23 01:48:04;;;;;;;10.35;5.40;;;11.80;99.90;;;;;;5093775;28;20055;-74
2023/09/23 01:50:29;;;;;;;8.05;5.30;;;11.80;99.90;;;;;;5093172;28;20088;-74
2023/09/23 01:52:59;;;;;;;8.85;4.95;;;11.80;99.90;;;;;;5093145;28;20442;-74
2023/09/23 01:55:25;;;;;;;10.30;5.90;;;11.70;99.90;;;;;;5092968;28;20016;-74
2023/09/23 01:57:50;;;;;;;12.02;6.05;;;11.80;99.90;;;;;;5092960;28;20024;-74
2023/09/23 02:00:24;;;;;;;16.25;6.97;;;11.80;99.90;;;;;;5093125;28;20028;-74
2023/09/23 02:02:53;;;;;;;12.73;6.47;;;11.80;99.90;;;;;;5093641;28;20012;-74
2023/09/23 02:05:20;;;;;;;15.25;6.55;;;11.80;99.90;;;;;;5091453;28;20106;-74
2023/09/23 02:07:50;;;;;;;11.70;6.43;;;11.80;99.90;;;;;;5092919;28;20484;-74
2023/09/23 02:10:17;;;;;;;12.48;6.53;;;11.90;99.90;;;;;;5093038;28;20387;-74
2023/09/23 02:12:43;;;;;;;13.05;6.68;;;11.90;99.90;;;;;;5092469;28;20024;-74
2023/09/23 02:15:09;;;;;;;9.88;6.00;;;12.00;99.90;;;;;;5093255;28;20016;-75
2023/09/23 02:17:36;;;;;;;13.38;6.38;;;11.90;99.90;;;;;;5092812;28;20020;-74
2023/09/23 02:20:04;;;;;;;12.10;6.65;;;11.90;99.90;;;;;;5094689;28;20024;-74
2023/09/23 02:22:30;;;;;;;14.17;6.50;;;12.00;99.90;;;;;;5096716;28;20021;-74
2023/09/23 02:24:56;;;;;;;12.77;6.68;;;11.90;99.90;;;;;;5095215;28;20265;-74
2023/09/23 02:27:21;;;;;;;12.25;6.65;;;11.90;99.90;;;;;;5096529;28;20028;-74
2023/09/23 02:29:49;;;;;;;12.77;6.85;;;11.90;99.90;;;;;;5096489;28;20016;-74
2023/09/23 02:32:15;;;;;;;13.57;6.90;;;12.00;99.90;;;;;;5095299;28;20046;-74
2023/09/23 02:34:40;;;;;;;12.52;7.28;;;12.00;99.90;;;;;;5096407;28;20103;-74
2023/09/23 02:37:06;;;;;;;11.63;6.55;;;12.00;99.90;;;;;;5096393;28;20069;-74
2023/09/23 02:39:32;;;;;;;16.95;7.15;;;12.00;99.90;;;;;;5095038;28;20115;-74
2023/09/23 02:41:59;;;;;;;14.18;7.13;;;12.00;99.90;;;;;;5096257;28;20049;-74
2023/09/23 02:44:25;;;;;;;11.38;6.53;;;12.00;99.90;;;;;;5094840;28;20024;-74
2023/09/23 02:46:54;;;;;;;13.60;7.00;;;12.00;99.90;;;;;;5096675;28;20590;-74
2023/09/23 02:49:19;;;;;;;;;;;12.00;99.90;;;;;;5096604;28;20031;-74
2023/09/23 02:51:45;;;;;;;10.50;6.40;;;12.00;99.90;;;;;;5095990;28;19904;-74
2023/09/23 02:54:17;;;;;;;13.02;6.78;;;12.00;99.90;;;;;;5096090;28;20020;-74
2023/09/23 02:56:50;;;;;;;11.75;6.65;;;11.90;99.90;;;;;;5096002;28;20090;-74
2023/09/23 02:59:21;;;;;;;11.98;5.97;;;11.90;99.90;;;;;;5096041;28;20455;-73
2023/09/23 03:01:51;;;;;;;12.30;6.95;;;11.90;99.90;;;;;;5096297;28;20054;-73
2023/09/23 03:04:19;;;;;;;15.10;6.95;;;11.80;99.90;;;;;;5094521;28;20032;-74
2023/09/23 03:06:49;;;;;;;14.15;7.05;;;11.80;99.90;;;;;;5094532;28;20020;-73
2023/09/23 03:09:25;;;;;;;14.70;7.25;;;12.00;99.90;;;;;;5095827;28;20020;-74
2023/09/23 03:11:58;;;;;;;14.68;6.25;;;11.80;99.90;;;;;;5096368;28;20051;-73
2023/09/23 03:14:40;;;;;;;12.68;5.95;;;11.80;99.90;;;;;;5095696;28;20399;-73
2023/09/23 03:17:07;;;;;;;11.10;6.38;;;11.80;99.90;;;;;;5095591;28;20024;-73
2023/09/23 03:19:33;;;;;;;12.60;6.22;;;11.80;99.90;;;;;;5095588;28;20043;-73
2023/09/23 03:22:00;;;;;;;11.35;5.50;;;11.80;99.90;;;;;;5095454;28;20025;-75
2023/09/23 03:24:28;;;;;;;13.00;7.05;;;11.80;99.90;;;;;;5095372;28;20070;-75
2023/09/23 03:26:55;;;;;;;10.48;5.47;;;11.80;99.90;;;;;;5095373;28;20093;-75
2023/09/23 03:29:22;;;;;;;10.82;5.53;;;11.80;99.90;;;;;;5094118;28;20020;-75
2023/09/23 03:31:48;;;;;;;15.00;6.40;;;11.80;99.90;;;;;;5093408;28;20020;-75
2023/09/23 03:34:14;;;;;;;8.90;4.88;;;11.80;99.90;;;;;;5093945;28;20012;-74
2023/09/23 03:36:44;;;;;;;10.45;5.65;;;11.80;99.90;;;;;;5095418;28;20035;-74
2023/09/23 03:39:10;;;;;;;8.20;4.28;;;11.80;99.90;;;;;;5095697;28;20023;-74
2023/09/23 03:41:37;;;;;;;11.45;4.90;;;11.70;99.90;;;;;;5095098;28;20125;-74
2023/09/23 03:44:07;;;;;;;9.90;4.22;;;11.70;99.90;;;;;;5095003;28;20024;-75
2023/09/23 03:46:33;;;;;;;9.63;4.93;;;11.70;99.90;;;;;;5094961;28;20070;-75
2023/09/23 03:49:00;;;;;;;8.32;4.75;;;11.70;99.90;;;;;;5095511;28;20109;-74
2023/09/23 03:51:26;;;;;;;9.32;4.55;;;11.60;99.90;;;;;;5094887;28;20093;-75
2023/09/23 03:53:51;;;;;;;9.15;4.35;;;11.60;99.90;;;;;;5094743;28;20024;-75
2023/09/23 03:56:21;;;;;;;11.02;5.25;;;11.60;99.90;;;;;;5093565;28;20028;-75
2023/09/23 03:58:46;;;;;;;10.23;4.93;;;11.60;99.90;;;;;;5093534;28;20031;-74
2023/09/23 04:01:15;;;;;;;9.90;4.55;;;11.60;99.90;;;;;;5094822;28;20024;-75
2023/09/23 04:03:41;;;;;;;;;;;11.60;99.90;;;;;;5093625;28;20031;-75
2023/09/23 04:06:06;;;;;;;8.15;4.07;;;11.60;99.90;;;;;;5093353;28;19908;-75
2023/09/23 04:08:32;;;;;;;8.30;3.83;;;11.60;99.90;;;;;;5094693;28;20035;-75
2023/09/23 04:11:03;;;;;;;7.22;3.85;;;11.60;99.90;;;;;;5093297;28;20069;-75
2023/09/23 04:13:30;;;;;;;12.85;4.78;;;11.60;99.90;;;;;;5094630;28;20031;-75
2023/09/23 04:16:02;;;;;;;9.88;4.00;;;11.60;99.90;;;;;;5094465;28;20073;-75
2023/09/23 04:18:31;;;;;;;9.05;4.03;;;11.60;99.90;;;;;;5094472;28;20028;-75
2023/09/23 04:20:58;;;;;;;7.43;4.15;;;11.60;99.90;;;;;;5094388;28;20023;-75
2023/09/23 04:23:23;;;;;;;12.02;4.85;;;11.60;99.90;;;;;;5093089;28;20031;-75
2023/09/23 04:25:49;;;;;;;10.43;4.05;;;11.60;99.90;;;;;;5093010;28;20209;-75
2023/09/23 04:28:16;;;;;;;11.50;5.68;;;;;;;;;;5093119;28;20020;-75
2023/09/23 04:30:41;;;;;;;7.65;4.32;;;11.60;99.90;;;;;;5093035;28;20113;-75
2023/09/23 04:33:07;;;;;;;11.65;3.85;;;13.00;99.90;;;;;;5094768;28;20020;-75
2023/09/23 04:35:34;;;;;;;8.77;4.10;;;11.70;99.90;;;;;;5094254;28;20499;-75
2023/09/23 04:38:00;;;;;;;9.68;4.90;;;11.70;99.90;;;;;;5094754;28;20024;-73
2023/09/23 04:40:26;;;;;;;12.15;4.45;;;11.70;99.90;;;;;;5094337;28;20024;-75
2023/09/23 04:42:52;;;;;;;11.18;4.82;;;11.70;99.90;;;;;;5092430;28;20475;-74
2023/09/23 04:45:20;;;;;;;8.38;3.67;;;11.70;99.90;;;;;;5093713;28;20016;-75
2023/09/23 04:47:50;;;;;;;8.18;3.70;;;11.80;99.90;;;;;;5092518;28;20024;-75
2023/09/23 04:50:23;;;;;;;10.52;4.13;;;11.80;99.90;;;;;;5094252;28;20040;-74
2023/09/23 04:52:50;;;;;;;9.40;3.90;;;11.90;99.90;;;;;;5094355;28;20091;-75
2023/09/23 04:55:16;;;;;;;10.23;4.05;;;11.90;99.90;;;;;;5094196;28;20035;-75
2023/09/23 04:57:41;;;;;;;6.43;3.80;;;11.90;99.90;;;;;;5093817;28;20020;-75
2023/09/23 05:00:09;;;;;;;9.00;4.13;;;11.90;99.90;;;;;;5093690;28;20106;-75
2023/09/23 05:02:39;;;;;;;7.00;3.33;;;11.90;99.90;;;;;;5093805;28;20020;-75
2023/09/23 05:05:05;;;;;;;11.50;4.32;;;11.90;99.90;;;;;;5093397;28;20028;-75
2023/09/23 05:07:30;;;;;;;10.15;3.40;;;11.80;99.90;;;;;;5093487;28;20028;-75
2023/09/23 05:09:56;;;;;;;14.57;4.50;;;11.90;99.90;;;;;;5092308;28;20016;-75
2023/09/23 05:12:22;;;;;;;6.40;3.30;;;11.80;99.90;;;;;;5093494;28;20012;-74
2023/09/23 05:14:47;;;;;;;7.20;3.67;;;11.90;99.90;;;;;;5093492;28;20031;-75
2023/09/23 05:17:15;;;;;;;9.63;3.38;;;11.90;99.90;;;;;;5093413;28;20024;-75
2023/09/23 05:19:47;;;;;;;7.88;3.88;;;11.80;99.90;;;;;;5092238;28;20028;-74
2023/09/23 05:22:12;;;;;;;10.10;4.03;;;11.80;99.90;;;;;;5093378;28;20117;-74
2023/09/23 05:24:39;;;;;;;6.75;3.63;;;11.80;99.90;;;;;;5093333;28;20071;-74
2023/09/23 05:27:04;;;;;;;7.07;3.90;;;11.80;99.90;;;;;;5091967;28;20027;-74
2023/09/23 05:29:30;;;;;;;6.85;3.70;;;11.80;99.90;;;;;;5092069;28;20020;-74
2023/09/23 05:31:57;;;;;;;7.85;4.20;;;11.80;99.90;;;;;;5092188;28;20016;-75
2023/09/23 05:34:22;;;;;;;9.13;3.25;;;11.80;99.90;;;;;;5093238;28;20024;-75
2023/09/23 05:36:48;;;;;;;15.30;4.22;;;11.80;99.90;;;;;;5093352;28;20103;-75
2023/09/23 05:39:19;;;;;;;8.80;3.42;;;11.80;99.90;;;;;;5093238;28;20073;-75
2023/09/23 05:41:49;;;;;;;8.90;3.65;;;11.80;99.90;;;;;;5093288;28;20020;-75
2023/09/23 05:44:18;;;;;;;8.93;4.10;;;11.80;99.90;;;;;;5093179;28;20028;-75
2023/09/23 05:46:44;;;;;;;8.25;3.58;;;11.70;99.90;;;;;;5093126;28;20020;-75
2023/09/23 05:49:12;;;;;;;9.98;3.60;;;11.70;99.90;;;;;;5091841;28;20024;-75
2023/09/23 05:51:38;;;;;;;8.43;3.90;;;11.70;99.90;;;;;;5093271;28;20020;-75
2023/09/23 05:54:04;;;;;;;11.35;4.50;;;11.80;99.90;;;;;;5093076;28;20016;-75
2023/09/23 05:56:30;;;;;;;8.57;4.00;;;11.80;99.90;;;;;;5097119;28;20028;-75
2023/09/23 05:58:55;;;;;;;7.85;3.10;;;11.80;99.90;;;;;;5097696;28;20459;-75
2023/09/23 06:01:21;;;;;;;7.32;3.30;;;11.90;99.90;;;;;;5097113;28;20039;-75
2023/09/23 06:03:48;;;;;;;7.85;3.72;;;11.90;99.90;;;;;;5097388;28;20028;-75
2023/09/23 06:06:14;;;;;;;7.38;2.80;;;11.80;99.90;;;;;;5096869;28;20020;-75
2023/09/23 06:08:40;;;;;;;9.48;2.95;;;11.90;99.90;;;;;;5095892;28;20047;-75
2023/09/23 06:11:05;;;;;;;7.15;3.13;;;11.90;99.90;;;;;;5095777;28;20016;-75
2023/09/23 06:13:32;;;;;;;12.68;3.63;;;11.90;99.90;;;;;;5096953;28;20154;-75
2023/09/23 06:16:05;;;;;;;14.27;2.60;;;11.90;99.90;;;;;;5096858;28;20026;-75
2023/09/23 06:18:31;;;;;;;7.57;2.60;;;11.90;99.90;;;;;;5097053;28;20027;-75
2023/09/23 06:21:01;;;;;;;6.45;2.42;;;11.80;99.90;;;;;;5096717;28;20031;-75
2023/09/23 06:23:27;;;;;;;7.72;2.25;;;12.00;99.90;;;;;;5096672;28;20417;-74
2023/09/23 06:26:05;;;;;;;6.22;2.30;;;12.00;99.90;;;;;;5096616;28;20053;-74
2023/09/23 06:28:32;;;;;;;5.67;2.17;;;12.10;99.90;;;;;;5095531;28;20395;-74
2023/09/23 06:30:58;;;;;;;6.40;1.77;;;12.10;99.90;;;;;;5096460;28;20425;-74
2023/09/23 06:33:23;;;;;;;18.10;2.75;;;12.10;99.90;;;;;;5096330;28;20081;-75
2023/09/23 06:35:49;;;;;;;5.93;1.70;;;12.20;99.90;;;;;;5096384;28;20062;-75
2023/09/23 06:38:15;;;;;;;5.50;1.95;;;12.20;99.90;;;;;;5096499;28;20391;-75
2023/09/23 06:40:41;;;;;;;5.22;1.70;;;12.40;99.90;;;;;;5096394;28;20036;-75
2023/09/23 06:43:07;;;;;;;8.32;1.27;;;12.40;99.90;;;;;;5096271;28;20030;-75
2023/09/23 06:45:33;;;;;;;5.85;1.20;;;;;;;;;;5094627;28;20120;-75
2023/09/23 06:47:58;;;;;;;5.60;1.27;;;12.50;99.90;;;;;;5096096;28;20036;-75
2023/09/23 06:50:24;;;;;;;4.60;1.40;;;12.60;99.90;;;;;;5094776;28;20020;-75
2023/09/23 06:52:49;;;;;;;7.13;1.50;;;12.60;99.90;;;;;;5096068;28;20483;-75
2023/09/23 06:55:15;;;;;;;5.47;1.27;;;12.60;99.90;;;;;;5095958;28;20020;-73
2023/09/23 06:57:41;;;;;;;8.50;2.90;;;12.60;99.90;;;;;;5096140;28;20104;-73
2023/09/23 07:00:07;;;;;;;2.90;1.42;;;12.80;99.90;;;;;;5096090;28;20060;-73
2023/09/23 07:02:33;;;;;;;2.85;1.00;;;12.80;99.90;;;;;;5096449;28;20024;-73
2023/09/23 07:05:00;;;;;;;3.78;1.52;;;12.80;99.90;;;;;;5095694;28;20490;-73
2023/09/23 07:07:25;;;;;;;2.10;1.20;;;12.80;99.90;;;;;;5094998;28;20055;-73
2023/09/23 07:09:51;;;;;;;3.80;1.30;;;12.90;99.90;;;;;;5095810;28;20054;-73
2023/09/23 07:12:17;;;;;;;2.28;1.05;;;12.90;99.90;;;;;;5094538;28;20530;-73
2023/09/23 07:14:42;;;;;;;4.97;1.67;;;12.90;99.90;;;;;;5095629;28;20032;-73
2023/09/23 07:17:08;;;;;;;4.43;1.00;;;13.00;99.90;;;;;;5095728;28;20016;-73
2023/09/23 07:19:34;;;;;;;4.20;1.52;;;13.10;99.90;;;;;;5095711;28;20031;-73
2023/09/23 07:22:00;;;;;;;3.53;0.77;;;13.30;99.90;;;;;;5095606;28;20048;-73
2023/09/23 07:24:26;;;;;;;5.82;1.00;;;13.40;99.90;;;;;;5094196;28;20115;-73
2023/09/23 07:26:55;;;;;;;6.38;0.90;;;13.50;99.90;;;;;;5095581;28;20020;-73
2023/09/23 07:29:21;;;;;;;2.97;0.47;;;13.40;99.90;;;;;;5094141;28;20023;-73
2023/09/23 07:31:47;;;;;;;3.45;1.08;;;13.50;99.90;;;;;;5095269;28;20113;-73
2023/09/23 07:34:12;;;;;;;5.18;1.08;;;13.50;99.90;;;;;;5095865;28;20077;-73
2023/09/23 07:36:38;;;;;;;5.30;1.05;;;13.50;99.90;;;;;;5094123;28;20020;-73
2023/09/23 07:39:03;;;;;;;6.05;1.30;;;13.40;99.90;;;;;;5095305;28;20391;-73
2023/09/23 07:41:29;;;;;;;1.60;0.90;;;13.40;99.90;;;;;;5095037;28;20476;-73
2023/09/23 07:43:54;;;;;;;3.00;0.93;;;13.40;99.90;;;;;;5093805;28;20548;-74
2023/09/23 07:46:20;;;;;;;5.00;1.13;;;13.40;99.90;;;;;;5095062;28;20020;-73
2023/09/23 07:48:46;;;;;;;5.10;1.20;;;13.50;99.90;;;;;;5093714;28;20024;-73
2023/09/23 07:51:12;;;;;;;6.18;0.82;;;13.70;99.90;;;;;;5094930;28;20044;-73
2023/09/23 07:53:37;;;;;;;7.00;1.20;;;13.90;99.90;;;;;;5095493;28;20016;-73
2023/09/23 07:56:04;;;;;;;6.32;1.05;;;14.20;99.90;;;;;;5094783;28;20035;-73
2023/09/23 07:58:29;;;;;;;3.67;0.88;;;14.30;99.90;;;;;;5094916;28;20059;-73
2023/09/23 08:00:55;;;;;;;5.43;0.50;;;14.40;99.90;;;;;;5094845;28;20048;-73
2023/09/23 08:03:28;;;;;;;4.28;0.60;;;14.60;99.90;;;;;;5094553;28;20424;-73
2023/09/23 08:05:53;;;;;;;6.55;1.02;;;14.70;99.90;;;;;;5094602;28;20032;-73
2023/09/23 08:08:19;;;;;;;2.70;0.50;;;14.80;99.90;;;;;;5094847;28;20588;-73
2023/09/23 08:10:45;;;;;;;19.58;1.05;;;14.70;99.90;;;;;;5094499;28;20098;-73
2023/09/23 08:13:11;;;;;;;7.18;0.50;;;14.70;99.90;;;;;;5094546;28;20024;-73
2023/09/23 08:15:37;;;;;;;2.38;0.40;;;14.80;99.90;;;;;;5094454;28;20024;-73
2023/09/23 08:18:03;;;;;;;7.85;0.60;;;14.80;99.90;;;;;;5094192;28;20054;-73
2023/09/23 08:20:29;;;;;;;4.35;0.93;;;14.90;99.90;;;;;;5094588;28;20027;-73
2023/09/23 08:22:55;;;;;;;2.70;0.35;;;15.00;99.90;;;;;;5094425;28;20020;-73
2023/09/23 08:25:20;;;;;;;5.20;0.80;;;15.10;99.90;;;;;;5092830;28;20030;-73
2023/09/23 08:27:46;;;;;;;3.13;0.22;;;15.00;99.90;;;;;;5094004;28;20103;-73
2023/09/23 08:30:15;;;;;;;1.92;1.05;;;15.10;99.90;;;;;;5092700;28;20127;-73
2023/09/23 08:32:41;;;;;;;3.53;0.70;;;15.10;99.90;;;;;;5094166;28;20028;-73
2023/09/23 08:35:07;;;;;;;7.68;1.45;;;15.00;99.90;;;;;;5093825;28;20028;-74
2023/09/23 08:37:33;;;;;;;3.80;0.50;;;15.10;99.90;;;;;;5094031;28;20395;-73
2023/09/23 08:39:59;;;;;;;1.60;0.45;;;15.10;99.90;;;;;;5093962;28;20102;-73
2023/09/23 08:42:25;;;;;;;4.57;0.52;;;15.10;99.90;;;;;;5092632;28;20463;-73
2023/09/23 08:44:57;;;;;;;4.88;0.60;;;15.20;99.90;;;;;;5093755;28;20034;-73
2023/09/23 08:47:23;;;;;;;2.20;0.63;;;15.20;99.90;;;;;;5092681;28;20103;-73
2023/09/23 08:49:50;;;;;;;0.98;0.20;;;15.20;99.90;;;;;;5092160;28;20150;-73
2023/09/23 08:52:19;;;;;;;5.82;1.02;;;15.20;99.90;;;;;;5093628;28;20023;-73
2023/09/23 08:54:49;;;;;;;4.53;0.38;;;15.30;99.90;;;;;;5091000;28;20024;-73
2023/09/23 08:57:19;;;;;;;2.10;0.20;;;15.30;99.90;;;;;;5092438;28;20024;-73
2023/09/23 08:59:45;;;;;;;6.03;0.30;;;15.70;99.90;;;;;;5092357;28;20028;-73
2023/09/23 09:02:22;;;;;;;1.70;0.40;;;15.60;99.90;;;;;;5094696;28;20486;-73
2023/09/23 09:04:48;;;;;;;2.47;0.70;;;15.80;99.90;;;;;;5092203;28;20071;-73
2023/09/23 09:07:13;;;;;;;5.10;0.73;;;15.80;99.90;;;;;;5093470;28;20017;-73
2023/09/23 09:09:40;;;;;;;3.47;1.25;;;15.80;99.90;;;;;;5093693;28;20024;-73
2023/09/23 09:12:06;;;;;;;2.78;0.50;;;15.80;99.90;;;;;;5094030;28;20013;-73
2023/09/23 09:14:33;;;;;;;3.97;0.20;;;15.50;99.90;;;;;;5092104;28;20054;-73
2023/09/23 09:16:59;;;;;;;4.53;0.40;;;15.50;99.90;;;;;;5093666;28;20035;-73
2023/09/23 09:19:25;;;;;;;7.47;0.90;;;15.60;99.90;;;;;;5093383;28;20074;-73
2023/09/23 09:21:51;;;;;;;3.30;0.63;;;15.50;99.90;;;;;;5093440;28;20507;-73
2023/09/23 09:24:17;;;;;;;1.50;0.50;;;15.50;99.90;;;;;;5093344;28;20042;-73
2023/09/23 09:26:44;;;;;;;3.22;0.40;;;15.50;99.90;;;;;;5093345;28;20064;-73
2023/09/23 09:29:10;;;;;;;3.40;0.50;;;15.50;99.90;;;;;;5092917;28;20043;-73
2023/09/23 09:31:38;;;;;;;6.07;0.65;;;15.70;99.90;;;;;;5093398;28;20421;-73
2023/09/23 09:34:11;;;;;;;3.65;0.75;;;15.70;99.90;;;;;;5093334;28;20020;-73
2023/09/23 09:36:40;;;;;;;4.10;0.65;;;15.60;99.90;;;;;;5093387;28;20107;-73
2023/09/23 09:39:10;;;;;;;5.25;0.35;;;15.50;99.90;;;;;;5093298;28;20020;-73
2023/09/23 09:41:53;;;;;;;5.03;0.65;;;15.40;99.90;;;;;;5093171;28;20021;-73
2023/09/23 09:44:23;;;;;;;4.10;0.95;;;15.30;99.90;;;;;;5093241;28;20024;-73
2023/09/23 09:46:50;;;;;;;7.03;0.50;;;15.20;99.90;;;;;;5093163;28;20028;-73
2023/09/23 09:49:16;;;;;;;2.97;0.98;;;15.20;99.90;;;;;;5093140;28;20028;-73
2023/09/23 09:51:46;;;;;;;2.33;0.55;;;15.10;99.90;;;;;;5092103;28;20536;-73
2023/09/23 09:54:13;;;;;;;2.20;0.70;;;15.00;99.90;;;;;;5093061;28;20024;-73
2023/09/23 09:56:40;;;;;;;5.22;0.70;;;15.10;99.90;;;;;;5091635;28;20020;-73
2023/09/23 09:59:06;;;;;;;5.93;1.88;;;15.10;99.90;;;;;;5093488;28;20020;-73
2023/09/23 10:01:32;;;;;;;3.50;0.85;;;;;;;;;;5091734;28;20500;-76
2023/09/23 10:03:59;;;;;;;2.70;0.32;;;15.20;99.90;;;;;;5091999;28;20425;-77
2023/09/23 10:06:26;;;;;;;14.95;1.00;;;15.20;99.90;;;;;;5093245;28;20107;-76
2023/09/23 10:08:53;;;;;;;2.63;0.50;;;15.20;99.90;;;;;;5092999;28;20099;-76
2023/09/23 10:11:39;;;;;;;4.55;0.70;;;15.30;99.90;;;;;;5091162;28;20024;-77
2023/09/23 10:14:16;;;;;;;3.00;0.20;;;15.10;99.90;;;;;;5092267;28;20017;-76
2023/09/23 10:16:48;;;;;;;5.10;0.40;;;15.20;99.90;;;;;;5091812;28;20024;-77
2023/09/23 10:19:15;;;;;;;2.78;0.20;;;15.20;99.90;;;;;;5092874;28;20084;-77
2023/09/23 10:21:44;;;;;;;7.25;1.40;;;15.20;99.90;;;;;;5094161;28;20028;-77
2023/09/23 10:24:18;;;;;;;2.35;0.10;;;15.40;99.90;;;;;;5093015;28;20020;-77
2023/09/23 10:26:44;;;;;;;3.97;0.10;;;15.50;99.90;;;;;;5093057;28;20035;-76
2023/09/23 10:29:10;;;;;;;1.45;0.00;;;15.70;99.90;;;;;;5092025;28;20017;-76
2023/09/23 10:31:37;;;;;;;2.63;0.32;;;15.80;99.90;;;;;;5091299;28;20103;-75
2023/09/23 10:34:07;;;;;;;1.33;0.38;;;16.10;99.90;;;;;;5091090;28;20108;-75
2023/09/23 10:36:35;;;;;;;0.82;0.00;;;16.10;99.90;;;;;;5092742;28;20024;-75
2023/09/23 10:39:06;;;;;;;3.10;0.00;;;16.50;99.90;;;;;;5091960;28;20518;-75
2023/09/23 10:41:35;;;;;;;1.38;0.35;;;16.60;99.90;;;;;;5093772;28;20020;-76
2023/09/23 10:44:05;;;;;;;0.80;0.00;;;16.90;99.90;;;;;;5095539;28;20053;-75
2023/09/23 10:46:31;;;;;;;3.70;0.00;;;16.90;99.90;;;;;;5095101;28;20498;-74
2023/09/23 10:48:57;;;;;;;0.30;0.00;;;17.00;99.90;;;;;;5096412;28;20040;-75
2023/09/23 10:51:23;;;;;;;1.23;0.00;;;;;;;;;;5096968;28;20081;-76
2023/09/23 10:53:51;;;;;;;2.05;0.10;;;17.20;99.90;;;;;;5095344;28;20024;-75
2023/09/23 10:56:21;;;;;;;3.35;0.17;;;17.30;99.90;;;;;;5096977;28;20500;-74
2023/09/23 10:58:47;;;;;;;0.75;0.00;;;17.90;99.90;;;;;;5094806;28;20436;-73
2023/09/23 11:01:12;;;;;;;0.22;0.10;;;17.80;99.90;;;;;;5094777;28;20108;-73
2023/09/23 11:03:40;;;;;;;0.10;0.05;;;18.00;99.90;;;;;;5095673;28;20064;-73
2023/09/23 11:06:08;;;;;;;1.23;0.00;;;18.00;99.90;;;;;;5094543;28;20032;-73
2023/09/23 11:08:34;;;;;;;0.90;0.00;;;18.10;99.90;;;;;;5096084;28;20016;-73
2023/09/23 11:10:59;;;;;;;0.17;0.00;;;18.00;99.90;;;;;;5094476;28;20018;-73
2023/09/23 11:13:26;;;;;;;1.00;0.47;;;17.90;99.90;;;;;;5095790;28;20365;-73
2023/09/23 11:15:52;;;;;;;2.22;0.00;;;18.00;99.90;;;;;;5095669;28;20040;-73
2023/09/23 11:18:18;;;;;;;0.55;0.00;;;18.00;99.90;;;;;;5095801;28;20024;-73
2023/09/23 11:20:46;;;;;;;0.75;0.15;;;18.20;99.90;;;;;;5095601;28;20024;-73
2023/09/23 11:23:12;;;;;;;0.03;0.00;;;18.50;99.90;;;;;;5095707;28;20360;-73
2023/09/23 11:25:46;;;;;;;1.75;0.13;;;18.90;99.90;;;;;;5095498;28;20028;-73
2023/09/23 11:28:19;;;;;;;1.42;0.00;;;18.90;99.90;;;;;;5096201;28;20031;-73
2023/09/23 11:30:46;;;;;;;0.80;0.00;;;18.70;99.90;;;;;;5095472;28;20028;-73
2023/09/23 11:33:14;;;;;;;0.10;0.00;;;18.60;99.90;;;;;;5095979;28;20031;-74
2023/09/23 11:35:41;;;;;;;2.20;0.00;;;18.50;99.90;;;;;;5095541;28;20105;-74
2023/09/23 11:38:06;;;;;;;0.00;0.00;;;18.40;99.90;;;;;;5095268;28;20487;-73
2023/09/23 11:40:32;;;;;;;1.85;0.00;;;18.10;99.90;;;;;;5095942;28;20138;-73
2023/09/23 11:42:59;;;;;;;2.88;0.00;;;18.20;99.90;;;;;;5094073;28;20023;-73
2023/09/23 11:45:24;;;;;;;1.40;0.00;;;18.20;99.90;;;;;;5095100;28;20120;-73
2023/09/23 11:47:51;;;;;;;4.72;0.00;;;18.30;99.90;;;;;;5095004;28;20047;-73
2023/09/23 11:50:17;;;;;;;3.42;0.55;;;18.50;99.90;;;;;;5095036;28;20020;-73
2023/09/23 11:52:43;;;;;;;4.82;0.30;;;18.40;99.90;;;;;;5094495;28;20020;-73
2023/09/23 11:55:12;;;;;;;2.35;0.13;;;18.30;99.90;;;;;;5093682;28;20107;-73
2023/09/23 11:57:42;;;;;;;1.65;0.28;;;18.30;99.90;;;;;;5095429;28;20451;-73
2023/09/23 12:00:09;;;;;;;1.98;0.00;;;18.40;99.90;;;;;;5094903;28;20014;-73
2023/09/23 12:02:39;;;;;;;15.77;0.20;;;18.70;99.90;;;;;;5094923;28;20167;-73
2023/09/23 12:05:07;;;;;;;2.13;0.10;;;18.90;99.90;;;;;;5094639;28;20452;-73
2023/09/23 12:07:32;;;;;;;0.88;0.00;;;19.00;99.90;;;;;;5094666;28;20024;-73
2023/09/23 12:09:58;;;;;;;3.28;0.28;;;18.80;99.90;;;;;;5094692;28;20027;-73
2023/09/23 12:12:24;;;;;;;0.73;0.10;;;18.60;99.90;;;;;;5094523;28;20138;-73
2023/09/23 12:14:50;;;;;;;1.13;0.00;;;18.40;99.90;;;;;;5094622;28;20027;-73
2023/09/23 12:17:16;;;;;;;1.42;0.00;;;18.20;99.90;;;;;;5093371;28;20024;-73
2023/09/23 12:19:44;;;;;;;1.45;0.10;;;17.90;99.90;;;;;;5093272;28;20020;-73
2023/09/23 12:22:12;;;;;;;0.38;0.00;;;17.80;99.90;;;;;;5094986;28;20475;-73
2023/09/23 12:24:41;;;;;;;3.80;0.40;;;17.90;99.90;;;;;;5094758;28;20476;-73
2023/09/23 12:27:06;;;;;;;4.95;0.30;;;18.10;99.90;;;;;;5094197;28;20020;-73
2023/09/23 12:29:32;;;;;;;0.00;0.00;;;18.40;99.90;;;;;;5094366;28;20059;-73
2023/09/23 12:31:57;;;;;;;0.85;0.00;;;18.60;99.90;;;;;;5094271;28;20084;-73
2023/09/23 12:34:23;;;;;;;1.85;0.00;;;18.80;99.90;;;;;;5094238;28;20044;-73
2023/09/23 12:36:49;;;;;;;2.53;0.00;;;19.00;99.90;;;;;;5093916;28;20020;-73
2023/09/23 12:39:16;;;;;;;2.20;0.00;;;19.30;99.90;;;;;;5094230;28;20028;-73
2023/09/23 12:41:42;;;;;;;0.05;0.05;;;19.70;99.90;;;;;;5094242;28;20390;-73
2023/09/23 12:44:08;;;;;;;2.47;0.00;;;20.20;99.90;;;;;;5092881;28;20020;-73
2023/09/23 12:46:33;;;;;;;0.20;0.00;;;20.70;99.90;;;;;;5094481;28;20038;-73